createdAt,value
2023-03-04T00:01:53.308Z,50.60
2023-03-04T00:06:57.573Z,50.30
2023-03-04T00:12:01.614Z,50.30
2023-03-04T00:17:05.744Z,50.60
2023-03-04T00:22:09.588Z,51.10
2023-03-04T00:27:14.027Z,52.50
2023-03-04T00:32:18.803Z,51.20
2023-03-04T00:37:22.708Z,51.40
2023-03-04T00:42:27.587Z,51.40
2023-03-04T00:47:31.811Z,51.40
2023-03-04T00:52:35.832Z,51.60
2023-03-04T00:57:39.955Z,51.60
2023-03-04T01:02:43.934Z,52.20
2023-03-04T01:07:48.131Z,52.10
2023-03-04T01:12:52.263Z,51.80
2023-03-04T01:17:56.932Z,51.90
2023-03-04T01:23:01.139Z,51.80
2023-03-04T01:28:05.382Z,51.90
2023-03-04T01:33:09.723Z,52.30
2023-03-04T01:38:13.638Z,52.30
2023-03-04T01:43:27.702Z,52.20
2023-03-04T01:48:37.552Z,52.40
2023-03-04T01:53:41.721Z,52.00
2023-03-04T01:58:45.751Z,52.00
2023-03-04T02:03:49.886Z,52.50
2023-03-04T02:08:54.117Z,52.00
2023-03-04T02:13:58.778Z,52.00
2023-03-04T02:19:03.211Z,52.10
2023-03-04T02:24:10.329Z,52.00
2023-03-04T02:29:17.294Z,52.60
2023-03-04T02:34:25.559Z,52.10
2023-03-04T02:39:36.997Z,51.90
2023-03-04T02:44:46.611Z,50.70
2023-03-04T02:49:51.048Z,50.70
2023-03-04T02:54:55.177Z,50.20
2023-03-04T02:59:59.476Z,49.70
2023-03-04T03:05:04.799Z,49.50
2023-03-04T03:10:10.278Z,49.30
2023-03-04T03:15:14.671Z,49.70
2023-03-04T03:20:19.018Z,49.30
2023-03-04T03:25:23.771Z,49.40
2023-03-04T03:30:29.474Z,49.60
2023-03-04T03:35:34.628Z,49.40
2023-03-04T03:40:38.745Z,49.40
2023-03-04T03:45:42.802Z,49.30
2023-03-04T03:50:48.064Z,49.30
2023-03-04T03:55:51.964Z,49.20
2023-03-04T04:00:58.213Z,49.40
2023-03-04T04:06:02.665Z,49.10
2023-03-04T04:11:06.627Z,49.00
2023-03-04T04:16:11.945Z,49.60
2023-03-04T04:21:15.906Z,48.80
2023-03-04T04:26:19.895Z,49.00
2023-03-04T04:31:23.972Z,49.30
2023-03-04T04:36:28.601Z,49.70
2023-03-04T04:41:38.073Z,49.90
2023-03-04T04:46:42.412Z,49.60
2023-03-04T04:51:46.344Z,49.70
2023-03-04T04:56:50.475Z,50.10
2023-03-04T05:01:54.505Z,49.80
2023-03-04T05:06:58.436Z,50.30
2023-03-04T05:12:02.396Z,50.50
2023-03-04T05:17:08.004Z,50.50
2023-03-04T05:22:11.970Z,50.10
2023-03-04T05:27:15.901Z,50.50
2023-03-04T05:32:19.962Z,50.30
2023-03-04T05:37:24.277Z,50.50
2023-03-04T05:42:28.213Z,51.00
2023-03-04T05:47:32.244Z,50.80
2023-03-04T05:52:36.486Z,50.70
2023-03-04T05:57:40.421Z,50.50
2023-03-04T06:02:45.240Z,50.60
2023-03-04T06:07:49.851Z,50.80
2023-03-04T06:12:53.844Z,50.60
2023-03-04T06:17:57.869Z,50.60
2023-03-04T06:23:01.811Z,51.10
2023-03-04T06:28:05.944Z,51.00
2023-03-04T06:33:09.884Z,50.40
2023-03-04T06:38:14.106Z,50.00
2023-03-04T06:43:18.350Z,49.40
2023-03-04T06:48:22.186Z,48.90
2023-03-04T06:53:26.213Z,48.60
2023-03-04T06:58:30.347Z,48.70
2023-03-04T07:03:34.379Z,48.80
2023-03-04T07:08:39.432Z,49.10
2023-03-04T07:13:43.756Z,48.60
2023-03-04T07:18:47.804Z,48.60
2023-03-04T07:23:52.146Z,48.90
2023-03-04T07:28:58.740Z,48.70
2023-03-04T07:34:06.942Z,49.00
2023-03-04T07:39:13.351Z,49.00
2023-03-04T07:44:17.394Z,48.40
2023-03-04T07:49:21.621Z,48.40
2023-03-04T07:54:25.644Z,48.30
2023-03-04T07:59:29.583Z,48.20
2023-03-04T08:04:34.014Z,48.20
2023-03-04T08:09:37.843Z,48.00
2023-03-04T08:14:42.284Z,48.10
2023-03-04T08:19:46.527Z,48.10
2023-03-04T08:24:53.405Z,48.10
2023-03-04T08:30:00.818Z,48.20
2023-03-04T08:35:05.260Z,47.60
2023-03-04T08:40:10.013Z,47.10
2023-03-04T08:45:14.054Z,47.10
2023-03-04T08:50:18.857Z,46.90
2023-03-04T08:55:23.649Z,46.70
2023-03-04T09:00:28.085Z,46.30
2023-03-04T09:05:33.033Z,46.40
2023-03-04T09:10:36.974Z,46.00
2023-03-04T09:15:45.839Z,46.50
2023-03-04T09:20:50.045Z,46.60
2023-03-04T09:25:53.886Z,47.20
2023-03-04T09:30:57.944Z,47.40
2023-03-04T09:36:01.760Z,48.10
2023-03-04T09:41:09.716Z,48.50
2023-03-04T09:46:23.052Z,49.50
2023-03-04T09:51:35.937Z,50.80
2023-03-04T09:56:41.514Z,50.50
2023-03-04T10:01:52.570Z,50.40
2023-03-04T10:06:57.461Z,51.10
2023-03-04T10:12:05.537Z,50.60
2023-03-04T10:17:38.992Z,50.90
2023-03-04T10:22:49.198Z,50.60
2023-03-04T10:27:59.526Z,50.60
2023-03-04T10:33:06.346Z,50.40
2023-03-04T10:38:11.730Z,50.70
2023-03-04T10:43:17.991Z,50.30
2023-03-04T10:48:28.324Z,50.70
2023-03-04T10:53:38.034Z,50.80
2023-03-04T10:58:42.027Z,51.30
2023-03-04T11:03:50.440Z,52.00
2023-03-04T11:08:59.886Z,51.90
2023-03-04T11:14:16.659Z,51.90
2023-03-04T11:19:22.708Z,51.30
2023-03-04T11:24:29.892Z,51.20
2023-03-04T11:29:42.543Z,51.40
2023-03-04T11:34:58.760Z,51.20
2023-03-04T11:40:16.881Z,51.20
2023-03-04T11:45:32.904Z,51.10
2023-03-04T11:51:01.332Z,51.80
2023-03-04T11:56:31.960Z,51.30
2023-03-04T12:01:50.932Z,51.30
2023-03-04T12:07:15.242Z,52.00
2023-03-04T12:12:24.086Z,51.70
2023-03-04T12:17:31.093Z,52.00
2023-03-04T12:23:11.252Z,52.00
2023-03-04T12:28:39.729Z,52.50
2023-03-04T12:33:49.847Z,52.60
2023-03-04T12:39:12.463Z,52.20
2023-03-04T12:44:21.516Z,53.20
2023-03-04T12:49:50.198Z,52.90
2023-03-04T12:54:59.225Z,52.10
2023-03-04T13:00:10.037Z,51.20
2023-03-04T13:05:49.398Z,51.60
2023-03-04T13:10:54.801Z,50.80
2023-03-04T13:16:05.387Z,50.70
2023-03-04T13:21:12.423Z,52.10
2023-03-04T13:26:19.765Z,52.00
2023-03-04T13:31:27.408Z,52.50
2023-03-04T13:36:35.689Z,52.70
2023-03-04T13:41:51.470Z,52.30
2023-03-04T13:46:55.470Z,51.90
2023-03-04T13:51:59.840Z,52.10
2023-03-04T13:57:22.705Z,51.40
2023-03-04T14:02:27.621Z,51.70
2023-03-04T14:07:35.634Z,49.90
2023-03-04T14:12:46.771Z,49.80
2023-03-04T14:17:54.879Z,49.30
2023-03-04T14:23:01.315Z,49.40
2023-03-04T14:28:17.610Z,50.10
2023-03-04T14:33:26.108Z,50.20
2023-03-04T14:38:34.502Z,50.80
2023-03-04T14:43:54.817Z,49.40
2023-03-04T14:49:00.242Z,49.10
2023-03-04T14:54:05.341Z,49.00
2023-03-04T14:59:13.933Z,49.20
2023-03-04T15:04:20.584Z,49.30
2023-03-04T15:09:28.035Z,50.10
2023-03-04T15:14:56.916Z,49.90
2023-03-04T15:20:19.073Z,49.50
2023-03-04T15:25:24.150Z,49.70
2023-03-04T15:30:34.276Z,49.20
2023-03-04T15:35:39.890Z,49.60
2023-03-04T15:40:44.128Z,49.30
2023-03-04T15:45:49.597Z,48.50
2023-03-04T15:50:59.566Z,48.70
2023-03-04T15:56:07.224Z,48.30
2023-03-04T16:01:17.092Z,48.90
2023-03-04T16:06:23.842Z,48.80
2023-03-04T16:11:31.354Z,48.90
2023-03-04T16:16:36.582Z,49.30
2023-03-04T16:21:41.639Z,49.30
2023-03-04T16:26:47.013Z,52.20
2023-03-04T16:31:51.237Z,49.50
2023-03-04T16:36:58.042Z,49.40
2023-03-04T16:42:03.100Z,49.80
2023-03-04T16:47:09.024Z,49.50
2023-03-04T16:52:27.539Z,49.20
2023-03-04T16:57:32.945Z,49.50
2023-03-04T17:02:37.653Z,49.50
2023-03-04T17:07:42.187Z,49.20
2023-03-04T17:12:47.035Z,49.10
2023-03-04T17:17:53.706Z,49.40
2023-03-04T17:23:00.216Z,49.00
2023-03-04T17:28:06.099Z,48.80
2023-03-04T17:33:10.844Z,49.30
2023-03-04T17:38:17.316Z,49.40
2023-03-04T17:43:24.000Z,49.60
2023-03-04T17:48:28.768Z,49.60
2023-03-04T17:53:35.166Z,49.30
2023-03-04T17:58:41.272Z,49.40
2023-03-04T18:03:49.269Z,49.20
2023-03-04T18:08:55.261Z,49.70
2023-03-04T18:14:00.273Z,49.30
2023-03-04T18:19:07.338Z,49.50
2023-03-04T18:24:15.259Z,49.40
2023-03-04T18:29:21.597Z,49.20
2023-03-04T18:34:27.785Z,49.10
2023-03-04T18:39:33.800Z,48.90
2023-03-04T18:44:41.594Z,48.80
2023-03-04T18:49:49.280Z,48.60
2023-03-04T18:54:57.954Z,47.50
2023-03-04T19:00:07.395Z,47.10
2023-03-04T19:05:27.268Z,46.30
2023-03-04T19:10:35.708Z,46.30
2023-03-04T19:15:41.727Z,46.30
2023-03-04T19:28:02.918Z,45.60
2023-03-04T19:33:13.418Z,46.20
2023-03-04T19:38:25.036Z,46.10
2023-03-04T19:43:31.268Z,45.50
2023-03-04T19:48:41.383Z,45.40
2023-03-04T20:00:37.658Z,45.80
2023-03-04T20:05:45.219Z,46.00
2023-03-04T20:10:53.289Z,46.60
2023-03-04T20:16:00.521Z,46.80
2023-03-04T20:21:09.108Z,47.70
2023-03-04T20:26:16.319Z,47.80
2023-03-04T20:31:33.990Z,47.50
2023-03-04T20:36:45.637Z,48.10
2023-03-04T20:41:51.854Z,48.40
2023-03-04T20:46:57.094Z,49.40
2023-03-04T20:52:07.308Z,48.90
2023-03-04T20:57:12.732Z,49.70
2023-03-04T21:02:20.610Z,50.30
2023-03-04T21:07:27.218Z,50.90
2023-03-04T21:12:32.642Z,50.90
2023-03-04T21:17:38.119Z,50.70
2023-03-04T21:22:46.111Z,50.70
2023-03-04T21:27:50.801Z,50.50
2023-03-04T21:32:56.657Z,50.40
2023-03-04T21:38:03.005Z,50.50
2023-03-04T21:43:07.821Z,50.30
2023-03-04T21:48:13.445Z,50.50
2023-03-04T21:53:22.642Z,50.60
2023-03-04T21:58:27.334Z,50.40
2023-03-04T22:03:31.432Z,50.30
2023-03-04T22:08:36.905Z,50.30
2023-03-04T22:13:41.646Z,50.40
2023-03-04T22:18:45.695Z,50.40
2023-03-04T22:23:50.000Z,50.30
2023-03-04T22:28:53.962Z,50.40
2023-03-04T22:33:57.995Z,51.10
2023-03-04T22:39:02.861Z,51.10
2023-03-04T22:44:07.403Z,51.30
2023-03-04T22:49:13.807Z,51.30
2023-03-04T22:54:19.445Z,51.90
2023-03-04T22:59:23.410Z,51.20
2023-03-04T23:04:27.493Z,51.20
2023-03-04T23:09:31.422Z,51.10
2023-03-04T23:14:35.489Z,51.00
2023-03-04T23:19:40.005Z,51.10
2023-03-04T23:24:44.245Z,50.90
2023-03-04T23:29:48.065Z,50.40
2023-03-04T23:34:54.148Z,49.70
2023-03-04T23:39:58.076Z,49.00
2023-03-04T23:45:02.010Z,48.70
2023-03-04T23:50:08.773Z,48.40
2023-03-04T23:55:17.016Z,48.10
